Time;durP1;ratioP1;P1;durP2;ratioP2;P2;SDS_P1;SDS_P2;PMS_P1;PMS_P2;Temp;Humidity;BMP_temperature;BMP_pressure;BME280_temperature;BME280_humidity;BME280_pressure;Samples;Min_cycle;Max_cycle;Signal;HPM_P1;HPM_P2
2022/10/06 04:02:35;;;;;;;61.63;58.40;;;14.40;99.90;;;;;;4973479;28;20548;-77
2022/10/06 04:05:00;;;;;;;62.53;59.35;;;14.40;99.90;;;;;;4977613;28;20044;-77
2022/10/06 04:07:26;;;;;;;59.65;56.65;;;14.40;99.90;;;;;;4975864;28;20050;-77
2022/10/06 04:09:52;;;;;;;63.58;60.33;;;14.50;99.90;;;;;;4977649;28;20036;-77
2022/10/06 04:12:17;;;;;;;64.32;61.00;;;14.60;99.90;;;;;;4976012;28;20039;-77
2022/10/06 04:14:43;;;;;;;66.88;63.53;;;14.60;99.90;;;;;;5025899;22;20046;-72
2022/10/06 04:17:08;;;;;;;70.07;66.40;;;14.70;99.90;;;;;;5014898;28;20047;-72
2022/10/06 04:19:34;;;;;;;70.18;66.43;;;14.60;99.90;;;;;;5016507;28;20049;-72
2022/10/06 04:21:59;;;;;;;73.05;69.22;;;14.50;99.90;;;;;;5017495;28;20030;-73
2022/10/06 04:24:25;;;;;;;72.60;68.70;;;14.50;99.90;;;;;;5015746;28;20035;-73
2022/10/06 04:26:51;;;;;;;76.50;72.35;;;14.50;99.90;;;;;;5016936;28;20125;-73
2022/10/06 04:29:16;;;;;;;76.90;72.72;;;14.30;99.90;;;;;;5016545;28;20161;-73
2022/10/06 04:31:42;;;;;;;77.40;73.25;;;14.20;99.90;;;;;;5017469;28;20038;-74
2022/10/06 04:34:10;;;;;;;83.40;78.85;;;14.30;99.90;;;;;;5015766;28;20065;-73
2022/10/06 04:36:39;;;;;;;79.85;75.50;;;14.30;99.90;;;;;;5016020;28;20128;-73
2022/10/06 04:39:06;;;;;;;81.65;77.38;;;14.30;99.90;;;;;;5016133;28;20026;-73
2022/10/06 04:41:34;;;;;;;82.85;78.57;;;14.30;99.90;;;;;;5016240;28;20062;-73
2022/10/06 04:44:01;;;;;;;85.47;80.95;;;14.40;99.90;;;;;;5014746;28;20045;-73
2022/10/06 04:46:28;;;;;;;83.90;79.47;;;14.40;99.90;;;;;;5015675;28;20105;-73
2022/10/06 04:48:54;;;;;;;85.38;80.90;;;14.40;99.90;;;;;;5016543;28;20034;-73
2022/10/06 04:51:21;;;;;;;90.60;85.75;;;14.40;99.90;;;;;;5016074;28;20034;-73
2022/10/06 04:53:48;;;;;;;79.88;75.68;;;14.40;99.90;;;;;;5015757;28;20030;-73
2022/10/06 04:56:18;;;;;;;82.72;78.30;;;14.40;99.90;;;;;;5015635;28;20038;-73
2022/10/06 04:58:45;;;;;;;91.28;86.38;;;14.40;99.90;;;;;;5015720;28;20077;-73
2022/10/06 05:01:40;;;;;;;95.35;89.88;;;14.50;99.90;;;;;;5015586;28;20117;-73
2022/10/06 05:04:06;;;;;;;91.97;86.85;;;14.60;99.90;;;;;;5010555;28;20471;-73
2022/10/06 05:06:33;;;;;;;86.13;81.25;;;14.60;99.90;;;;;;5015484;28;20066;-73
2022/10/06 05:09:01;;;;;;;94.07;89.05;;;14.60;99.90;;;;;;5015841;28;20065;-73
2022/10/06 05:11:27;;;;;;;73.18;69.40;;;14.60;99.90;;;;;;5015710;28;20062;-73
2022/10/06 05:13:55;;;;;;;71.45;67.72;;;14.50;99.90;;;;;;5015199;28;20042;-73
2022/10/06 05:16:22;;;;;;;76.50;72.55;;;14.50;99.90;;;;;;5015222;28;20528;-73
2022/10/06 05:18:47;;;;;;;82.13;77.82;;;14.50;99.90;;;;;;5015722;28;20186;-74
2022/10/06 05:21:16;;;;;;;87.07;82.57;;;14.50;99.90;;;;;;5015632;28;20150;-74
2022/10/06 05:23:43;;;;;;;88.78;84.10;;;14.50;99.90;;;;;;5015341;28;20026;-74
2022/10/06 05:26:14;;;;;;;90.60;85.80;;;14.60;99.90;;;;;;5015039;28;20046;-73
2022/10/06 05:28:39;;;;;;;98.18;92.97;;;14.70;99.90;;;;;;5015406;28;20068;-73
2022/10/06 05:31:05;;;;;;;100.72;95.45;;;14.80;99.90;;;;;;5015358;28;20515;-73
2022/10/06 05:33:33;;;;;;;99.53;94.20;;;14.90;99.90;;;;;;5015236;28;20035;-74
2022/10/06 05:36:05;;;;;;;106.72;100.93;;;14.90;99.90;;;;;;5015068;28;20030;-73
2022/10/06 05:38:32;;;;;;;109.43;103.63;;;15.00;99.90;;;;;;5015383;28;20034;-73
2022/10/06 05:41:04;;;;;;;110.63;104.72;;;15.00;99.90;;;;;;5014914;28;20040;-73
2022/10/06 05:43:31;;;;;;;120.68;114.13;;;14.90;99.90;;;;;;5014839;28;20100;-74
2022/10/06 05:45:59;;;;;;;128.75;121.32;;;14.90;99.90;;;;;;5014707;28;20038;-73
2022/10/06 05:48:25;;;;;;;135.55;127.97;;;14.80;99.90;;;;;;5015364;28;20101;-74
2022/10/06 05:51:08;;;;;;;132.25;124.90;;;14.80;99.90;;;;;;5014921;28;20026;-74
2022/10/06 05:53:34;;;;;;;139.90;131.90;;;14.70;99.90;;;;;;5014466;28;20034;-73
2022/10/06 05:56:06;;;;;;;146.55;138.25;;;14.70;99.90;;;;;;5014560;28;20049;-73
2022/10/06 05:58:32;;;;;;;143.95;135.88;;;14.70;99.90;;;;;;5013417;28;20038;-73
2022/10/06 06:01:11;;;;;;;147.65;139.20;;;14.70;99.90;;;;;;5014405;28;20030;-73
2022/10/06 06:03:38;;;;;;;144.75;136.73;;;14.80;99.90;;;;;;5014599;28;20039;-74
2022/10/06 06:06:13;;;;;;;152.70;144.07;;;14.80;99.90;;;;;;5014503;28;20491;-73
2022/10/06 06:08:39;;;;;;;150.52;142.25;;;14.80;99.90;;;;;;5015115;28;20042;-73
2022/10/06 06:11:06;;;;;;;146.38;138.30;;;14.80;99.90;;;;;;5014874;28;20026;-74
2022/10/06 06:13:32;;;;;;;131.80;124.70;;;14.80;99.90;;;;;;5013676;28;20030;-74
2022/10/06 06:16:03;;;;;;;117.22;111.03;;;14.80;99.90;;;;;;5014326;28;20400;-77
2022/10/06 06:18:36;;;;;;;104.35;98.82;;;15.00;99.90;;;;;;5014676;28;20061;-73
2022/10/06 06:21:07;;;;;;;103.90;98.25;;;15.00;99.90;;;;;;5014612;28;20066;-73
2022/10/06 06:23:35;;;;;;;101.78;95.82;;;15.00;99.90;;;;;;5015799;28;20026;-73
2022/10/06 06:26:06;;;;;;;72.85;68.95;;;15.10;99.90;;;;;;5014307;28;20030;-74
2022/10/06 06:28:34;;;;;;;71.50;67.82;;;15.20;99.90;;;;;;5014138;28;20046;-73
2022/10/06 06:31:08;;;;;;;71.05;67.25;;;15.30;99.90;;;;;;5012756;28;20030;-74
2022/10/06 06:33:38;;;;;;;63.90;60.55;;;15.30;99.90;;;;;;5014564;28;20050;-73
2022/10/06 06:36:21;;;;;;;1999.90;999.90;;;15.40;99.90;;;;;;5014161;28;20030;-73
2022/10/06 06:38:50;;;;;;;409.10;384.60;;;15.40;99.90;;;;;;5014545;28;20038;-73
2022/10/06 06:41:17;;;;;;;289.30;272.77;;;15.50;99.90;;;;;;5013111;28;20026;-74
2022/10/06 06:43:44;;;;;;;250.90;237.13;;;15.50;99.90;;;;;;5013975;28;20034;-74
2022/10/06 06:46:10;;;;;;;272.17;256.83;;;15.50;99.90;;;;;;5014082;28;20521;-73
2022/10/06 06:48:36;;;;;;;230.88;218.18;;;15.50;99.90;;;;;;5014217;28;20038;-73
2022/10/06 06:51:03;;;;;;;223.00;211.48;;;15.50;99.90;;;;;;5014200;28;20022;-74
2022/10/06 06:53:30;;;;;;;169.55;160.65;;;15.50;99.90;;;;;;5014106;28;20035;-74
2022/10/06 06:55:56;;;;;;;127.72;120.93;;;15.60;99.90;;;;;;5013638;28;20105;-74
2022/10/06 06:58:22;;;;;;;108.05;102.32;;;15.60;99.90;;;;;;5013772;28;20035;-75
2022/10/06 07:00:48;;;;;;;114.45;108.45;;;15.60;99.90;;;;;;5014303;28;20038;-74
2022/10/06 07:03:19;;;;;;;152.18;144.13;;;15.60;99.90;;;;;;5014104;28;20111;-75
2022/10/06 07:05:45;;;;;;;163.80;155.50;;;15.60;99.90;;;;;;5014419;28;20033;-76
2022/10/06 07:08:16;;;;;;;169.05;160.80;;;15.70;99.90;;;;;;5012793;28;20053;-74
2022/10/06 07:10:43;;;;;;;174.13;165.40;;;15.70;99.90;;;;;;5013843;28;20130;-73
2022/10/06 07:13:13;;;;;;;138.38;131.30;;;15.80;99.90;;;;;;5007957;28;20033;-76
2022/10/06 07:26:38;;;;;;;65.32;61.90;;;16.10;99.90;;;;;;5024576;28;20115;-76
2022/10/06 07:29:04;;;;;;;65.18;61.70;;;16.10;99.90;;;;;;5036782;28;20065;-76
2022/10/06 07:31:32;;;;;;;78.43;74.22;;;16.20;99.90;;;;;;5031620;28;20550;-73
2022/10/06 07:33:59;;;;;;;77.43;73.28;;;16.20;99.90;;;;;;5011690;28;20500;-74
2022/10/06 07:36:25;;;;;;;104.43;98.85;;;16.20;99.90;;;;;;5011500;28;20043;-74
2022/10/06 07:38:50;;;;;;;118.43;111.95;;;16.20;99.90;;;;;;5016052;28;20034;-74
2022/10/06 07:41:16;;;;;;;139.00;131.30;;;16.30;99.90;;;;;;5020334;28;20084;-74
2022/10/06 07:43:41;;;;;;;123.55;116.65;;;16.30;99.90;;;;;;5007779;28;20034;-74
2022/10/06 07:46:10;;;;;;;138.77;131.35;;;16.40;99.90;;;;;;5005094;28;20046;-74
2022/10/06 07:48:37;;;;;;;137.13;129.90;;;16.40;99.90;;;;;;5005587;28;20074;-74
2022/10/06 07:51:09;;;;;;;139.82;132.43;;;16.50;99.90;;;;;;5005664;28;20066;-73
2022/10/06 07:53:36;;;;;;;88.97;84.18;;;16.60;99.90;;;;;;5006761;28;20088;-74
2022/10/06 07:56:06;;;;;;;66.03;62.67;;;16.90;99.90;;;;;;5004655;28;20114;-74
2022/10/06 07:58:32;;;;;;;52.55;49.65;;;16.90;99.90;;;;;;5004276;28;20031;-74
2022/10/06 08:01:10;;;;;;;39.72;37.65;;;17.00;99.90;;;;;;5007378;28;20039;-76
2022/10/06 08:03:37;;;;;;;31.17;29.52;;;17.00;99.90;;;;;;5005412;28;20424;-74
2022/10/06 08:06:04;;;;;;;28.00;26.52;;;17.00;99.90;;;;;;5004456;28;20045;-77
2022/10/06 08:08:32;;;;;;;26.15;24.85;;;17.00;99.90;;;;;;5003331;28;20073;-74
2022/10/06 08:10:58;;;;;;;26.55;25.25;;;17.10;99.90;;;;;;5004931;28;20034;-74
2022/10/06 08:13:24;;;;;;;24.40;23.20;;;17.30;99.90;;;;;;5005899;28;20467;-74
2022/10/06 08:15:50;;;;;;;28.45;27.05;;;17.30;99.90;;;;;;5003508;28;20039;-74
2022/10/06 08:18:17;;;;;;;28.05;26.58;;;17.30;99.90;;;;;;5001380;28;20057;-74
2022/10/06 08:20:44;;;;;;;33.30;31.70;;;17.40;99.90;;;;;;5002227;28;20034;-74
2022/10/06 08:23:10;;;;;;;36.90;35.00;;;17.70;99.90;;;;;;5003026;28;20054;-74
2022/10/06 08:25:42;;;;;;;39.58;37.67;;;17.70;99.90;;;;;;5005101;28;20480;-74
2022/10/06 08:28:12;;;;;;;38.95;37.05;;;17.70;99.90;;;;;;5005819;28;20045;-74
2022/10/06 08:30:38;;;;;;;42.42;40.28;;;17.60;99.90;;;;;;5005964;28;20030;-75
2022/10/06 08:33:04;;;;;;;92.03;87.53;;;17.70;99.90;;;;;;4999153;28;20034;-74
2022/10/06 08:35:31;;;;;;;88.43;84.05;;;17.80;99.90;;;;;;5007448;28;20050;-75
2022/10/06 08:37:57;;;;;;;79.18;75.28;;;17.80;99.90;;;;;;5013925;28;20515;-75
2022/10/06 08:40:25;;;;;;;83.78;79.65;;;17.60;99.90;;;;;;5015452;28;20043;-74
2022/10/06 08:42:54;;;;;;;92.47;87.90;;;17.50;99.90;;;;;;5012390;28;20042;-74
2022/10/06 08:45:27;;;;;;;92.07;87.55;;;17.40;99.90;;;;;;5015041;28;20069;-74
2022/10/06 08:48:03;;;;;;;87.53;83.25;;;17.40;99.90;;;;;;5011310;28;20576;-74
2022/10/06 08:50:37;;;;;;;77.70;73.93;;;17.40;99.90;;;;;;5011592;28;20625;-76
2022/10/06 08:53:28;;;;;;;93.05;88.45;;;17.30;99.90;;;;;;5025160;28;20125;-75
2022/10/06 08:56:03;;;;;;;96.38;91.68;;;17.40;99.90;;;;;;5007100;28;20073;-75
2022/10/06 08:58:50;;;;;;;94.20;89.43;;;17.60;99.90;;;;;;5023929;28;20034;-75
2022/10/06 09:01:19;;;;;;;91.93;87.38;;;17.90;99.90;;;;;;5029167;28;20049;-75
2022/10/06 09:03:47;;;;;;;55.00;52.35;;;18.10;99.90;;;;;;5006214;28;20166;-74
2022/10/06 09:06:38;;;;;;;60.58;57.53;;;18.30;99.90;;;;;;5011734;28;20041;-75
2022/10/06 09:09:42;;;;;;;51.90;49.20;;;18.00;99.90;;;;;;5012237;28;20046;-75
2022/10/06 09:12:14;;;;;;;44.60;42.45;;;17.90;99.90;;;;;;5009534;28;20053;-77
2022/10/06 09:14:48;;;;;;;43.30;41.20;;;17.60;99.90;;;;;;5017951;28;20069;-75
2022/10/06 09:17:35;;;;;;;42.83;40.83;;;17.40;99.90;;;;;;5032293;28;20034;-75
2022/10/06 09:20:19;;;;;;;59.90;56.83;;;17.20;99.90;;;;;;5017800;28;20416;-75
2022/10/06 09:22:47;;;;;;;59.72;56.78;;;17.20;99.90;;;;;;5023532;28;20117;-74
2022/10/06 09:25:17;;;;;;;74.78;71.13;;;17.20;99.90;;;;;;5031501;28;20870;-76
2022/10/06 09:27:49;;;;;;;41.85;39.85;;;17.80;99.90;;;;;;5035853;28;20075;-75
2022/10/06 09:30:15;;;;;;;36.92;35.00;;;18.30;99.90;;;;;;5027091;28;20791;-75
2022/10/06 09:32:46;;;;;;;28.45;27.15;;;18.60;99.90;;;;;;5012342;28;20034;-78
2022/10/06 09:35:23;;;;;;;26.17;24.77;;;18.30;99.90;;;;;;5015790;28;20077;-74
2022/10/06 09:38:02;;;;;;;29.95;28.48;;;17.80;99.90;;;;;;5002380;28;20135;-77
2022/10/06 09:40:50;;;;;;;28.45;27.05;;;17.40;99.90;;;;;;5009726;28;20077;-74
2022/10/06 09:43:27;;;;;;;43.85;41.42;;;17.10;99.90;;;;;;5007739;28;20428;-74
2022/10/06 09:45:54;;;;;;;39.08;36.90;;;17.20;99.90;;;;;;5007625;28;20034;-74
2022/10/06 09:48:23;;;;;;;56.83;53.95;;;17.20;99.90;;;;;;5010425;28;20095;-74
2022/10/06 09:51:15;;;;;;;51.40;48.75;;;17.40;99.90;;;;;;5006910;28;20038;-75
2022/10/06 09:53:42;;;;;;;32.97;31.10;;;17.50;99.90;;;;;;5007904;28;20121;-73
2022/10/06 09:56:17;;;;;;;27.30;25.90;;;17.60;99.90;;;;;;5005131;28;20089;-73
2022/10/06 09:59:00;;;;;;;30.30;28.85;;;17.90;99.90;;;;;;5005235;28;20031;-73
2022/10/06 10:01:28;;;;;;;31.00;29.05;;;18.10;99.90;;;;;;5010345;28;20050;-75
2022/10/06 10:04:01;;;;;;;27.73;26.33;;;18.40;99.90;;;;;;5029582;28;20490;-74
2022/10/06 10:06:29;;;;;;;27.95;26.55;;;18.60;99.90;;;;;;5024790;28;20571;-74
2022/10/06 10:09:22;;;;;;;26.20;24.90;;;18.90;99.90;;;;;;5020999;28;20051;-76
2022/10/06 10:12:23;;;;;;;26.15;24.85;;;19.10;99.90;;;;;;5005109;28;20056;-75
2022/10/06 10:14:50;;;;;;;25.60;24.25;;;19.50;99.90;;;;;;5032972;28;20060;-74
2022/10/06 10:17:38;;;;;;;26.38;25.02;;;19.60;99.90;;;;;;5058031;22;20454;-80
2022/10/06 10:20:21;;;;;;;24.25;22.85;;;19.70;99.90;;;;;;5050696;28;20045;-79
2022/10/06 10:22:47;;;;;;;25.35;24.08;;;19.50;99.90;;;;;;5056010;28;20030;-79
2022/10/06 10:26:06;;;;;;;24.65;23.45;;;19.40;99.90;;;;;;5057885;28;20033;-79
2022/10/06 10:28:54;;;;;;;25.00;23.80;;;19.70;99.90;;;;;;5034328;28;20502;-80
2022/10/06 10:31:47;;;;;;;26.90;25.30;;;19.60;99.90;;;;;;5035607;28;20045;-80
2022/10/06 10:34:30;;;;;;;25.80;24.40;;;20.00;99.90;;;;;;5035760;28;20042;-80
2022/10/06 10:37:11;;;;;;;26.20;24.67;;;19.90;99.90;;;;;;5035814;28;20467;-80
2022/10/06 10:39:57;;;;;;;108.88;70.55;;;19.80;99.90;;;;;;5036426;28;20108;-80
2022/10/06 10:42:31;;;;;;;26.05;24.70;;;19.60;99.90;;;;;;5036195;28;20071;-80
2022/10/06 10:45:03;;;;;;;31.10;29.30;;;19.40;99.90;;;;;;5036231;28;20034;-80
2022/10/06 10:47:40;;;;;;;33.92;32.13;;;19.40;99.90;;;;;;5036401;28;20166;-80
2022/10/06 10:50:25;;;;;;;26.92;25.38;;;19.60;99.90;;;;;;5035831;28;20076;-80
2022/10/06 10:52:56;;;;;;;29.60;28.00;;;19.70;99.90;;;;;;5036385;28;20519;-79
2022/10/06 10:55:43;;;;;;;31.38;29.80;;;19.40;99.90;;;;;;5035857;28;20516;-80
2022/10/06 10:58:30;;;;;;;31.30;29.77;;;19.00;99.90;;;;;;5034641;28;20034;-80
2022/10/06 11:01:08;;;;;;;45.33;43.00;;;18.90;99.90;;;;;;5039260;28;20034;-80
2022/10/06 11:03:34;;;;;;;44.75;42.33;;;18.80;99.90;;;;;;5038549;28;20499;-80
2022/10/06 11:06:17;;;;;;;31.88;30.27;;;18.90;99.90;;;;;;5038216;28;20042;-80
2022/10/06 11:09:06;;;;;;;33.03;31.23;;;19.20;99.90;;;;;;5038891;28;20041;-80
2022/10/06 11:11:37;;;;;;;31.70;30.10;;;19.20;99.90;;;;;;5040388;28;20029;-80
2022/10/06 11:14:14;;;;;;;33.47;31.77;;;19.20;99.90;;;;;;5040598;28;20057;-80
2022/10/06 11:17:18;;;;;;;30.83;29.23;;;19.20;99.90;;;;;;5043523;28;20034;-79
2022/10/06 11:20:00;;;;;;;29.67;28.00;;;19.40;99.90;;;;;;5045110;28;20054;-80
2022/10/06 11:22:41;;;;;;;28.08;26.58;;;19.70;99.90;;;;;;5040690;28;20038;-79
2022/10/06 11:25:18;;;;;;;25.40;24.20;;;19.90;99.90;;;;;;5034182;28;20121;-79
2022/10/06 11:28:12;;;;;;;25.23;23.83;;;20.00;99.90;;;;;;5030052;28;20535;-79
2022/10/06 11:31:17;;;;;;;28.23;26.83;;;20.00;99.90;;;;;;5029263;28;20470;-80
2022/10/06 11:33:53;;;;;;;25.45;24.17;;;19.80;99.90;;;;;;5037166;28;20038;-79
2022/10/06 11:37:19;;;;;;;24.33;23.08;;;20.20;99.90;;;;;;5035993;28;20041;-78
2022/10/06 11:40:14;;;;;;;20.48;19.38;;;20.60;99.90;;;;;;5013724;28;20110;-78
2022/10/06 11:43:14;;;;;;;20.48;19.27;;;21.20;99.90;;;;;;5028030;28;20133;-80
2022/10/06 11:45:58;;;;;;;19.77;18.67;;;21.40;99.90;;;;;;5033238;28;20057;-80
2022/10/06 11:48:26;;;;;;;18.73;17.80;;;21.70;99.90;;;;;;5040919;28;20476;-79
2022/10/06 11:50:54;;;;;;;17.30;16.40;;;22.00;99.90;;;;;;5038506;28;20080;-79
2022/10/06 11:53:36;;;;;;;18.27;17.17;;;22.10;99.90;;;;;;5038458;28;20094;-79
2022/10/06 11:56:17;;;;;;;21.30;20.05;;;22.00;99.90;;;;;;5037880;28;20049;-78
2022/10/06 11:58:55;;;;;;;20.35;19.35;;;21.80;99.90;;;;;;5037810;28;20062;-80
2022/10/06 12:01:29;;;;;;;19.42;18.40;;;21.70;99.90;;;;;;5037815;28;20471;-79
2022/10/06 12:04:07;;;;;;;18.55;17.52;;;21.90;99.90;;;;;;5038003;28;20033;-80
2022/10/06 12:06:47;;;;;;;18.08;17.08;;;21.70;99.90;;;;;;5034939;28;20072;-79
2022/10/06 12:09:25;;;;;;;18.30;17.30;;;21.50;99.90;;;;;;5036532;28;20041;-79
2022/10/06 12:11:57;;;;;;;17.52;16.73;;;21.60;99.90;;;;;;5036118;28;20061;-79
2022/10/06 12:14:45;;;;;;;18.35;17.45;;;22.10;99.90;;;;;;5036914;28;20029;-80
2022/10/06 12:17:41;;;;;;;18.17;17.27;;;21.90;99.90;;;;;;5036456;28;20617;-80
2022/10/06 12:20:15;;;;;;;46.03;20.63;;;22.50;99.90;;;;;;5046018;28;20508;-79
2022/10/06 12:22:54;;;;;;;24.10;22.80;;;22.70;99.90;;;;;;5036375;28;20038;-79
2022/10/06 12:25:28;;;;;;;24.48;23.15;;;22.70;99.90;;;;;;5035159;28;20171;-79
2022/10/06 12:28:16;;;;;;;28.08;26.70;;;23.20;99.90;;;;;;5035064;28;20536;-80
2022/10/06 12:31:07;;;;;;;27.27;25.88;;;23.70;99.90;;;;;;5034368;28;20038;-79
2022/10/06 12:33:37;;;;;;;27.20;25.85;;;23.70;99.90;;;;;;5033451;28;20046;-79
2022/10/06 12:36:04;;;;;;;31.55;29.77;;;23.70;99.90;;;;;;5034827;28;20120;-79
2022/10/06 12:38:30;;;;;;;34.85;33.05;;;23.80;99.90;;;;;;5036917;28;20038;-80
2022/10/06 12:40:56;;;;;;;34.63;33.00;;;23.80;99.90;;;;;;5036227;28;20037;-77
2022/10/06 12:43:22;;;;;;;36.85;35.13;;;23.30;99.90;;;;;;5035009;28;20194;-77
2022/10/06 12:45:55;;;;;;;38.10;36.20;;;23.00;99.90;;;;;;5034640;28;20168;-77
2022/10/06 12:48:58;;;;;;;37.83;36.03;;;22.70;99.90;;;;;;5035943;28;20493;-77
2022/10/06 12:51:43;;;;;;;35.85;34.05;;;21.90;99.90;;;;;;5034064;28;20484;-79
2022/10/06 12:54:29;;;;;;;25.92;24.63;;;21.40;99.90;;;;;;5036310;28;20515;-81
2022/10/06 12:57:22;;;;;;;22.73;21.50;;;21.40;99.90;;;;;;5034011;28;20037;-80
2022/10/06 12:59:48;;;;;;;28.45;27.08;;;21.80;99.90;;;;;;5035830;28;20518;-80
2022/10/06 13:02:20;;;;;;;22.80;21.70;;;21.90;99.90;;;;;;5034687;28;20124;-80
2022/10/06 13:04:58;;;;;;;22.10;21.00;;;21.90;99.90;;;;;;5036934;28;20030;-80
2022/10/06 13:07:29;;;;;;;22.90;21.70;;;22.20;99.90;;;;;;5036148;28;20052;-80
2022/10/06 13:10:13;;;;;;;23.60;22.50;;;22.50;99.90;;;;;;5037933;28;20033;-81
2022/10/06 13:12:40;;;;;;;24.48;23.27;;;22.60;99.90;;;;;;5037694;28;20034;-80
2022/10/06 13:15:22;;;;;;;25.08;23.77;;;22.40;99.90;;;;;;5040105;28;20040;-80
2022/10/06 13:18:02;;;;;;;25.00;23.70;;;22.30;99.90;;;;;;5042566;28;20369;-80
2022/10/06 13:20:41;;;;;;;25.25;23.95;;;22.50;99.90;;;;;;5044325;28;20068;-80
2022/10/06 13:23:31;;;;;;;24.50;23.30;;;22.30;99.90;;;;;;5045245;28;20022;-80
2022/10/06 13:26:04;;;;;;;21.52;20.42;;;22.40;99.90;;;;;;5045163;28;20032;-80
2022/10/06 13:28:33;;;;;;;26.42;25.08;;;22.40;99.90;;;;;;5040470;28;20104;-80
2022/10/06 13:30:59;;;;;;;22.00;20.90;;;22.30;99.60;;;;;;5036317;28;20060;-80
2022/10/06 13:33:36;;;;;;;22.02;20.92;;;21.80;99.90;;;;;;5034581;28;20048;-80
2022/10/06 13:36:02;;;;;;;24.25;22.85;;;21.70;99.90;;;;;;5033957;28;20032;-80
2022/10/06 13:38:33;;;;;;;23.90;22.70;;;21.80;99.90;;;;;;5033894;28;20040;-80
2022/10/06 13:41:08;;;;;;;24.65;23.35;;;22.00;99.90;;;;;;5034391;28;20026;-81
2022/10/06 13:43:38;;;;;;;24.45;23.15;;;22.00;99.90;;;;;;5036522;28;20030;-80
2022/10/06 13:46:16;;;;;;;26.17;24.98;;;21.80;99.90;;;;;;5035827;28;20033;-80
2022/10/06 13:48:59;;;;;;;28.27;26.77;;;21.20;99.80;;;;;;5036254;28;20476;-80
2022/10/06 13:51:30;;;;;;;27.25;25.85;;;20.70;99.90;;;;;;5036527;28;20029;-80
2022/10/06 13:54:33;;;;;;;28.80;27.40;;;20.50;99.90;;;;;;5034617;28;20529;-80
2022/10/06 13:56:59;;;;;;;29.42;27.85;;;20.80;99.90;;;;;;5035426;28;20044;-80
2022/10/06 13:59:37;;;;;;;26.90;25.60;;;21.20;99.90;;;;;;5036358;28;20044;-80
2022/10/06 14:02:18;;;;;;;55.08;46.53;;;21.20;99.90;;;;;;5036435;28;20137;-80
2022/10/06 14:04:44;;;;;;;41.38;39.38;;;21.10;99.20;;;;;;5035433;28;20030;-80
2022/10/06 14:07:12;;;;;;;51.13;48.65;;;21.10;98.00;;;;;;5034004;28;20042;-80
2022/10/06 14:09:39;;;;;;;42.58;40.58;;;20.90;99.80;;;;;;5036586;28;20452;-80
2022/10/06 14:12:14;;;;;;;48.67;46.20;;;20.70;99.20;;;;;;5036635;28;20044;-80
2022/10/06 14:14:46;;;;;;;49.67;47.28;;;20.60;99.90;;;;;;5035037;28;20092;-80
2022/10/06 14:17:30;;;;;;;47.28;45.03;;;20.70;99.60;;;;;;5035629;28;20054;-80
2022/10/06 14:19:55;;;;;;;47.08;44.55;;;20.70;99.40;;;;;;5036731;28;20040;-81
2022/10/06 14:22:31;;;;;;;44.00;41.88;;;20.80;99.40;;;;;;5036619;28;20517;-80
2022/10/06 14:24:56;;;;;;;46.25;43.95;;;20.40;99.60;;;;;;5036307;28;20036;-80
2022/10/06 14:27:22;;;;;;;54.33;51.53;;;20.20;99.80;;;;;;5036660;28;20042;-80
2022/10/06 14:29:47;;;;;;;52.45;49.92;;;19.90;99.90;;;;;;5036754;28;20045;-80
2022/10/06 14:32:15;;;;;;;49.33;46.92;;;20.50;99.90;;;;;;5036905;28;20065;-78
2022/10/06 14:34:40;;;;;;;18.27;17.38;;;21.30;99.30;;;;;;5033349;28;20073;-78
2022/10/06 14:37:10;;;;;;;17.27;16.27;;;22.40;98.30;;;;;;5036011;28;20117;-78
2022/10/06 14:39:36;;;;;;;15.73;14.93;;;24.00;97.80;;;;;;5036479;28;20058;-79
2022/10/06 14:42:02;;;;;;;17.52;16.63;;;24.60;95.10;;;;;;5037510;28;20117;-79
2022/10/06 14:44:27;;;;;;;19.23;18.33;;;24.80;93.60;;;;;;5036249;28;20034;-79
2022/10/06 14:46:53;;;;;;;21.63;20.58;;;25.20;94.00;;;;;;5035706;28;20034;-78
2022/10/06 14:49:19;;;;;;;19.98;18.98;;;25.90;91.50;;;;;;5038524;28;20376;-80
2022/10/06 14:51:45;;;;;;;17.70;16.80;;;26.00;91.70;;;;;;5038404;28;20037;-80
2022/10/06 14:54:11;;;;;;;17.52;16.55;;;26.80;90.20;;;;;;5038612;28;20030;-80
2022/10/06 14:56:38;;;;;;;1508.78;758.30;;;27.20;85.80;;;;;;5036846;28;20038;-80
2022/10/06 14:59:06;;;;;;;1999.90;999.90;;;27.80;84.60;;;;;;5038107;28;20117;-80
2022/10/06 15:01:33;;;;;;;1999.90;999.90;;;28.30;84.60;;;;;;5040199;28;20037;-80
2022/10/06 15:04:08;;;;;;;1999.90;999.90;;;27.70;80.70;;;;;;5039849;28;20049;-80
2022/10/06 15:09:18;;;;;;;1999.90;999.90;;;27.70;77.10;;;;;;5039065;28;20042;-79
2022/10/06 15:11:44;;;;;;;1999.90;999.90;;;27.30;77.50;;;;;;5037709;28;20033;-78
2022/10/06 15:14:10;;;;;;;1999.90;999.90;;;26.90;78.50;;;;;;5037741;28;20373;-77
2022/10/06 15:16:39;;;;;;;1999.90;999.90;;;26.80;80.40;;;;;;5037352;28;20038;-77
2022/10/06 15:19:05;;;;;;;1999.90;999.90;;;27.40;77.50;;;;;;5038578;28;20040;-82
2022/10/06 15:21:33;;;;;;;1999.90;999.90;;;27.40;76.30;;;;;;5038750;28;20041;-79
2022/10/06 15:24:00;;;;;;;1999.90;999.90;;;27.80;76.20;;;;;;5040089;28;20120;-80
2022/10/06 15:29:18;;;;;;;1999.90;999.90;;;28.20;74.30;;;;;;5032016;28;20034;-83
2022/10/06 15:31:54;;;;;;;16.88;16.00;;;28.60;73.20;;;;;;5040541;28;20038;-82
2022/10/06 15:34:24;;;;;;;1999.90;999.90;;;28.40;72.10;;;;;;5041032;28;20109;-83
2022/10/06 15:36:51;;;;;;;12.93;12.32;;;28.70;70.00;;;;;;5042710;28;20034;-83
2022/10/06 15:39:19;;;;;;;16.85;16.05;;;28.80;69.00;;;;;;5042689;28;20038;-82
2022/10/06 15:41:45;;;;;;;21.77;20.77;;;28.40;70.20;;;;;;5042402;28;20033;-83
2022/10/06 15:44:11;;;;;;;22.98;21.98;;;27.10;70.40;;;;;;5044054;28;20101;-82
2022/10/06 15:46:48;;;;;;;20.35;19.35;;;25.60;74.40;;;;;;5036440;28;20030;-82
2022/10/06 15:49:15;;;;;;;18.15;17.15;;;24.50;78.00;;;;;;5026075;28;20045;-85
2022/10/06 15:51:49;;;;;;;15.20;14.48;;;23.40;81.00;;;;;;5037617;28;20034;-79
2022/10/06 15:54:23;;;;;;;15.85;15.05;;;22.90;80.80;;;;;;5038540;28;20045;-81
2022/10/06 15:56:51;;;;;;;173.38;93.65;;;22.10;86.00;;;;;;5039156;28;20036;-83
2022/10/06 15:59:24;;;;;;;154.82;146.23;;;21.30;90.00;;;;;;5038636;28;20064;-82
2022/10/06 16:01:54;;;;;;;83.70;79.80;;;20.90;90.50;;;;;;5038257;28;20125;-80
2022/10/06 16:07:06;;;;;;;17.80;16.85;;;20.00;92.20;;;;;;5038796;28;20042;-82
2022/10/06 16:09:34;;;;;;;21.92;20.83;;;19.50;93.40;;;;;;5037654;28;20030;-83
2022/10/06 16:12:02;;;;;;;40.72;38.60;;;19.70;93.80;;;;;;5036972;28;20573;-82
2022/10/06 16:14:28;;;;;;;45.85;43.60;;;19.90;95.00;;;;;;5038906;28;20034;-79
2022/10/06 16:16:57;;;;;;;68.70;65.30;;;19.40;95.90;;;;;;5042542;22;20120;-74
2022/10/06 16:19:24;;;;;;;79.82;75.93;;;18.70;97.40;;;;;;5017443;28;20093;-74
2022/10/06 16:21:50;;;;;;;95.15;90.07;;;18.10;98.60;;;;;;5017353;28;20503;-74
2022/10/06 16:24:20;;;;;;;81.38;76.93;;;17.70;99.90;;;;;;5018236;28;20034;-73
2022/10/06 16:26:46;;;;;;;66.57;63.05;;;17.20;99.90;;;;;;5015487;28;20126;-73
2022/10/06 16:29:14;;;;;;;65.90;62.53;;;16.80;99.90;;;;;;5016060;28;20030;-72
2022/10/06 16:31:40;;;;;;;83.47;79.07;;;16.50;99.90;;;;;;5015960;28;20034;-74
2022/10/06 16:34:06;;;;;;;102.20;92.55;;;16.10;99.90;;;;;;5018030;28;20037;-73
2022/10/06 16:36:31;;;;;;;161.23;150.68;;;15.80;99.90;;;;;;5016694;28;20395;-75
2022/10/06 16:38:57;;;;;;;196.88;183.75;;;15.50;99.90;;;;;;5016559;28;20046;-73
2022/10/06 16:41:23;;;;;;;220.35;205.57;;;15.20;99.90;;;;;;5014359;28;20038;-74
2022/10/06 16:43:50;;;;;;;210.85;197.75;;;15.00;99.90;;;;;;5015562;28;20394;-73
2022/10/06 16:46:22;;;;;;;207.73;195.68;;;14.80;99.90;;;;;;5013795;28;20420;-73
2022/10/06 16:48:50;;;;;;;204.07;192.52;;;14.50;99.90;;;;;;5015510;28;20133;-72
2022/10/06 16:51:25;;;;;;;213.20;200.50;;;14.40;99.90;;;;;;5015576;28;20031;-73
2022/10/06 16:53:59;;;;;;;218.38;204.80;;;14.00;99.90;;;;;;5015859;28;20041;-73
2022/10/06 16:56:33;;;;;;;227.68;213.13;;;13.80;99.90;;;;;;5016365;28;20042;-78
2022/10/06 16:59:02;;;;;;;211.18;197.93;;;13.60;99.90;;;;;;5017441;28;20038;-82
2022/10/06 17:01:30;;;;;;;168.48;158.13;;;13.40;99.90;;;;;;5016567;28;20031;-73
2022/10/06 17:04:05;;;;;;;138.48;130.57;;;13.20;99.90;;;;;;5014899;28;20046;-74
2022/10/06 17:06:40;;;;;;;101.95;96.18;;;13.10;99.90;;;;;;5016765;28;20830;-74
2022/10/06 17:09:07;;;;;;;84.20;79.30;;;12.90;99.90;;;;;;5015095;28;20046;-74
2022/10/06 17:11:34;;;;;;;110.82;104.30;;;12.90;99.90;;;;;;5016431;28;20045;-73